createdAt,value
2023-02-24T00:01:54.453Z,10.38
2023-02-24T00:04:21.262Z,9.00
2023-02-24T00:06:48.429Z,8.60
2023-02-24T00:09:18.336Z,6.63
2023-02-24T00:11:57.229Z,6.70
2023-02-24T00:14:26.887Z,6.78
2023-02-24T00:16:53.780Z,7.95
2023-02-24T00:19:23.740Z,6.68
2023-02-24T00:21:51.840Z,7.40
2023-02-24T00:24:19.080Z,7.07
2023-02-24T00:26:46.051Z,8.77
2023-02-24T00:29:15.977Z,9.88
2023-02-24T00:31:43.227Z,8.23
2023-02-24T00:34:12.671Z,7.90
2023-02-24T00:36:39.551Z,9.85
2023-02-24T00:39:11.591Z,8.98
2023-02-24T00:41:42.098Z,8.68
2023-02-24T00:44:11.728Z,8.25
2023-02-24T00:46:46.954Z,16.63
2023-02-24T00:49:19.320Z,14.95
2023-02-24T00:51:48.864Z,18.25
2023-02-24T00:54:16.856Z,17.20
2023-02-24T00:56:46.437Z,11.20
2023-02-24T00:59:15.512Z,8.45
2023-02-24T01:01:45.428Z,9.48
2023-02-24T01:04:13.705Z,15.77
2023-02-24T01:06:48.993Z,11.02
2023-02-24T01:09:18.905Z,8.60
2023-02-24T01:12:22.370Z,11.20
2023-02-24T01:14:53.794Z,8.27
2023-02-24T01:17:22.034Z,7.78
2023-02-24T01:19:50.160Z,8.38
2023-02-24T01:22:19.622Z,9.82
2023-02-24T01:24:47.188Z,10.57
2023-02-24T01:27:15.622Z,9.27
2023-02-24T01:29:42.091Z,9.85
2023-02-24T01:32:17.790Z,8.85
2023-02-24T01:34:45.300Z,9.40
2023-02-24T01:37:16.345Z,10.90
2023-02-24T01:39:47.130Z,13.02
2023-02-24T01:42:21.543Z,14.70
2023-02-24T01:44:48.130Z,12.30
2023-02-24T01:47:18.323Z,13.43
2023-02-24T01:49:47.652Z,12.70
2023-02-24T01:52:24.264Z,11.45
2023-02-24T01:54:55.803Z,9.80
2023-02-24T01:57:25.885Z,10.13
2023-02-24T01:59:54.835Z,16.80
2023-02-24T02:02:23.414Z,11.80
2023-02-24T02:04:57.294Z,14.80
2023-02-24T02:07:27.664Z,18.23
2023-02-24T02:09:55.370Z,14.75
2023-02-24T02:12:24.241Z,15.18
2023-02-24T02:14:54.159Z,15.63
2023-02-24T02:17:43.564Z,14.98
2023-02-24T02:20:47.956Z,13.20
2023-02-24T02:23:33.233Z,14.93
2023-02-24T02:26:40.498Z,17.50
2023-02-24T02:29:45.662Z,17.20
2023-02-24T02:32:31.831Z,15.45
2023-02-24T02:35:19.214Z,14.68
2023-02-24T02:37:52.717Z,15.23
2023-02-24T02:40:37.649Z,16.63
2023-02-24T02:43:11.507Z,20.63
2023-02-24T02:45:51.974Z,17.33
2023-02-24T02:48:37.624Z,17.15
2023-02-24T02:51:11.796Z,20.02
2023-02-24T02:54:00.568Z,18.52
2023-02-24T02:56:48.782Z,18.67
2023-02-24T02:59:22.618Z,21.25
2023-02-24T03:01:52.646Z,20.35
2023-02-24T03:04:23.376Z,19.35
2023-02-24T03:06:57.118Z,20.70
2023-02-24T03:09:30.435Z,19.63
2023-02-24T03:12:05.201Z,20.75
2023-02-24T03:14:37.671Z,20.45
2023-02-24T03:17:13.118Z,20.80
2023-02-24T03:19:41.632Z,22.33
2023-02-24T03:22:13.707Z,23.60
2023-02-24T03:24:44.830Z,22.63
2023-02-24T03:27:13.608Z,23.55
2023-02-24T03:29:48.801Z,21.55
2023-02-24T03:32:25.400Z,23.85
2023-02-24T03:35:04.402Z,25.25
2023-02-24T03:37:33.595Z,23.30
2023-02-24T03:40:12.059Z,25.52
2023-02-24T03:42:43.737Z,23.83
2023-02-24T03:45:11.094Z,24.10
2023-02-24T03:47:37.913Z,28.02
2023-02-24T03:50:15.279Z,25.73
2023-02-24T03:52:55.357Z,26.25
2023-02-24T03:55:43.690Z,28.70
2023-02-24T03:58:24.387Z,32.10
2023-02-24T04:01:13.928Z,27.95
2023-02-24T04:04:01.050Z,24.73
2023-02-24T04:06:41.819Z,24.88
2023-02-24T04:09:20.364Z,26.83
2023-02-24T04:12:13.796Z,28.73
2023-02-24T04:14:51.315Z,32.53
2023-02-24T04:17:33.327Z,33.00
2023-02-24T04:20:16.761Z,24.92
2023-02-24T04:22:49.507Z,24.25
2023-02-24T04:25:20.010Z,33.97
2023-02-24T04:27:48.132Z,28.17
2023-02-24T04:30:15.246Z,34.20
2023-02-24T04:32:42.882Z,32.33
2023-02-24T04:35:12.889Z,30.73
2023-02-24T04:37:45.901Z,31.08
2023-02-24T04:40:17.238Z,32.47
2023-02-24T04:42:49.143Z,32.65
2023-02-24T04:45:26.356Z,30.40
2023-02-24T04:48:00.843Z,30.45
2023-02-24T04:50:32.051Z,29.60
2023-02-24T04:53:06.882Z,27.60
2023-02-24T04:55:39.874Z,26.73
2023-02-24T04:58:10.382Z,26.52
2023-02-24T05:00:40.604Z,28.27
2023-02-24T05:03:08.662Z,23.45
2023-02-24T05:05:35.098Z,23.55
2023-02-24T05:08:09.345Z,26.88
2023-02-24T05:10:44.782Z,23.02
2023-02-24T05:13:20.379Z,22.40
2023-02-24T05:15:48.044Z,24.90
2023-02-24T05:18:20.327Z,28.90
2023-02-24T05:21:08.086Z,26.77
2023-02-24T05:23:40.349Z,24.77
2023-02-24T05:26:09.080Z,22.95
2023-02-24T05:28:37.378Z,25.73
2023-02-24T05:31:08.542Z,21.10
2023-02-24T05:33:40.068Z,22.27
2023-02-24T05:36:09.503Z,21.00
2023-02-24T05:38:38.504Z,20.67
2023-02-24T05:41:16.845Z,20.50
2023-02-24T05:43:53.407Z,21.98
2023-02-24T05:46:28.730Z,23.45
2023-02-24T05:48:57.267Z,21.63
2023-02-24T05:51:25.067Z,24.55
2023-02-24T05:53:55.738Z,19.33
2023-02-24T05:56:23.726Z,25.83
2023-02-24T05:59:02.517Z,21.58
2023-02-24T06:01:34.895Z,21.90
2023-02-24T06:04:05.980Z,19.05
2023-02-24T06:06:37.946Z,16.33
2023-02-24T06:09:11.095Z,19.20
2023-02-24T06:11:39.118Z,15.80
2023-02-24T06:14:08.871Z,18.65
2023-02-24T06:16:37.526Z,19.10
2023-02-24T06:19:07.738Z,21.40
2023-02-24T06:21:35.683Z,17.85
2023-02-24T06:24:02.521Z,14.55
2023-02-24T06:26:33.796Z,14.32
2023-02-24T06:29:00.379Z,14.00
2023-02-24T06:31:29.156Z,11.88
2023-02-24T06:33:57.832Z,15.18
2023-02-24T06:36:24.486Z,12.90
2023-02-24T06:38:52.678Z,10.48
2023-02-24T06:41:19.750Z,8.88
2023-02-24T06:43:48.419Z,9.15
2023-02-24T06:46:16.500Z,14.02
2023-02-24T06:48:43.716Z,9.88
2023-02-24T06:51:15.745Z,14.25
2023-02-24T06:53:45.361Z,9.85
2023-02-24T06:56:20.412Z,13.73
2023-02-24T06:58:50.733Z,9.27
2023-02-24T07:01:22.999Z,14.02
2023-02-24T07:04:08.096Z,12.48
2023-02-24T07:06:38.302Z,12.32
2023-02-24T07:09:09.150Z,11.75
2023-02-24T07:11:36.919Z,12.50
2023-02-24T07:14:05.903Z,10.45
2023-02-24T07:16:35.255Z,8.25
2023-02-24T07:19:11.295Z,14.07
2023-02-24T07:21:46.295Z,10.75
2023-02-24T07:24:24.851Z,11.38
2023-02-24T07:26:57.799Z,9.77
2023-02-24T07:29:25.912Z,8.80
2023-02-24T07:31:56.591Z,11.40
2023-02-24T07:34:29.354Z,11.95
2023-02-24T07:36:57.635Z,9.18
2023-02-24T07:39:26.661Z,10.63
2023-02-24T07:41:57.132Z,7.40
2023-02-24T07:44:24.547Z,10.73
2023-02-24T07:46:51.702Z,8.10
2023-02-24T07:49:22.560Z,9.82
2023-02-24T07:51:53.176Z,10.77
2023-02-24T07:54:21.497Z,9.02
2023-02-24T07:56:56.484Z,10.90
2023-02-24T07:59:35.295Z,10.32
2023-02-24T08:02:04.997Z,8.02
2023-02-24T08:04:39.758Z,10.32
2023-02-24T08:07:15.282Z,10.18
2023-02-24T08:09:45.078Z,12.25
2023-02-24T08:12:18.290Z,10.95
2023-02-24T08:14:51.058Z,7.50
2023-02-24T08:17:26.863Z,13.00
2023-02-24T08:20:21.651Z,10.48
2023-02-24T08:22:53.327Z,9.07
2023-02-24T08:25:36.845Z,11.18
2023-02-24T08:28:09.485Z,11.65
2023-02-24T08:30:47.454Z,6.88
2023-02-24T08:33:19.439Z,9.95
2023-02-24T08:35:52.206Z,8.65
2023-02-24T08:38:23.737Z,8.50
2023-02-24T08:40:54.539Z,10.30
2023-02-24T08:43:35.502Z,10.40
2023-02-24T08:46:18.747Z,9.50
2023-02-24T08:48:55.560Z,9.02
2023-02-24T08:51:28.961Z,9.82
2023-02-24T08:53:59.113Z,29.65
2023-02-24T08:56:29.157Z,8.85
2023-02-24T08:59:05.577Z,11.10
2023-02-24T09:01:38.628Z,7.15
2023-02-24T09:04:09.084Z,10.73
2023-02-24T09:06:43.322Z,14.30
2023-02-24T09:09:17.704Z,8.70
2023-02-24T09:11:57.029Z,11.60
2023-02-24T09:14:30.393Z,7.78
2023-02-24T09:17:11.704Z,10.20
2023-02-24T09:19:51.721Z,9.40
2023-02-24T09:22:40.948Z,6.97
2023-02-24T09:25:24.451Z,8.23
2023-02-24T09:28:08.335Z,7.13
2023-02-24T09:33:20.752Z,8.13
2023-02-24T09:36:10.913Z,8.60
2023-02-24T09:38:59.533Z,9.32
2023-02-24T09:41:56.819Z,7.25
2023-02-24T09:44:29.474Z,6.95
2023-02-24T09:47:39.543Z,8.45
2023-02-24T09:50:46.872Z,5.95
2023-02-24T09:53:17.478Z,6.38
2023-02-24T09:56:04.322Z,6.32
2023-02-24T09:58:47.771Z,6.10
2023-02-24T10:01:42.897Z,6.40
2023-02-24T10:04:54.150Z,6.60
2023-02-24T10:07:38.669Z,7.65
2023-02-24T10:10:20.675Z,9.38
2023-02-24T10:12:52.710Z,6.35
2023-02-24T10:15:44.843Z,8.50
2023-02-24T10:18:43.775Z,6.97
2023-02-24T10:21:30.893Z,6.88
2023-02-24T10:24:14.595Z,6.70
2023-02-24T10:27:00.630Z,8.02
2023-02-24T10:29:33.663Z,9.55
2023-02-24T10:32:23.507Z,8.82
2023-02-24T10:34:52.231Z,5.95
2023-02-24T10:37:28.184Z,10.57
2023-02-24T10:40:10.533Z,10.18
2023-02-24T10:42:45.761Z,10.77
2023-02-24T10:45:20.085Z,8.48
2023-02-24T10:47:58.560Z,10.73
2023-02-24T10:50:25.276Z,11.02
2023-02-24T10:53:03.413Z,6.88
2023-02-24T10:55:45.933Z,8.98
2023-02-24T10:58:38.686Z,8.25
2023-02-24T11:01:40.463Z,7.30
2023-02-24T11:04:33.799Z,7.18
2023-02-24T11:07:34.681Z,7.88
2023-02-24T11:10:11.281Z,10.93
2023-02-24T11:13:10.384Z,10.07
2023-02-24T11:16:02.929Z,7.65
2023-02-24T11:20:59.950Z,7.23
2023-02-24T11:23:38.388Z,9.68
2023-02-24T11:26:19.186Z,11.05
2023-02-24T11:29:04.436Z,9.77
2023-02-24T11:31:56.261Z,7.53
2023-02-24T11:34:28.945Z,7.40
2023-02-24T11:36:55.670Z,10.07
2023-02-24T11:39:42.862Z,11.02
2023-02-24T11:42:15.086Z,8.63
2023-02-24T11:45:06.466Z,14.68
2023-02-24T11:47:42.354Z,14.45
2023-02-24T11:50:37.068Z,8.50
2023-02-24T11:53:12.218Z,8.98
2023-02-24T11:55:43.317Z,8.88
2023-02-24T11:58:21.467Z,8.68
2023-02-24T12:01:01.950Z,7.63
2023-02-24T12:03:39.665Z,8.43
2023-02-24T12:06:21.328Z,9.75
2023-02-24T12:08:53.906Z,12.57
2023-02-24T12:11:42.096Z,7.70
2023-02-24T12:14:30.223Z,8.93
2023-02-24T12:17:18.480Z,9.95
2023-02-24T12:19:57.452Z,8.15
2023-02-24T12:22:30.932Z,8.20
2023-02-24T12:24:57.432Z,7.95
2023-02-24T12:27:52.128Z,6.68
2023-02-24T12:30:48.597Z,7.90
2023-02-24T12:33:35.593Z,6.88
2023-02-24T12:36:14.725Z,4.82
2023-02-24T12:39:15.901Z,5.32
2023-02-24T12:42:05.873Z,4.47
2023-02-24T12:44:41.753Z,8.38
2023-02-24T12:47:14.285Z,6.30
2023-02-24T12:50:09.380Z,4.70
2023-02-24T12:53:18.529Z,10.40
2023-02-24T12:56:00.720Z,12.00
2023-02-24T12:58:37.313Z,9.88
2023-02-24T13:01:21.679Z,13.20
2023-02-24T13:04:04.363Z,6.80
2023-02-24T13:06:31.294Z,8.07
2023-02-24T13:09:29.278Z,6.22
2023-02-24T13:12:07.305Z,7.55
2023-02-24T13:14:41.752Z,10.50
2023-02-24T13:17:11.000Z,6.72
2023-02-24T13:19:40.064Z,6.80
2023-02-24T13:22:11.161Z,6.38
2023-02-24T13:24:43.592Z,7.13
2023-02-24T13:27:13.111Z,10.52
2023-02-24T13:29:45.341Z,6.45
2023-02-24T13:32:29.230Z,7.47
2023-02-24T13:35:23.455Z,7.63
2023-02-24T13:37:49.941Z,10.75
2023-02-24T13:40:19.036Z,10.25
2023-02-24T13:42:57.726Z,9.05
2023-02-24T13:45:31.177Z,8.43
2023-02-24T13:48:25.351Z,7.88
2023-02-24T13:50:58.149Z,11.77
2023-02-24T13:53:57.714Z,9.27
2023-02-24T13:56:49.245Z,15.07
2023-02-24T13:59:33.702Z,12.05
2023-02-24T14:02:05.261Z,11.27
2023-02-24T14:04:35.048Z,13.05
2023-02-24T14:07:04.870Z,11.00
2023-02-24T14:09:35.104Z,16.85
2023-02-24T14:12:07.792Z,8.82
2023-02-24T14:14:34.723Z,12.88
2023-02-24T14:17:01.203Z,9.20
2023-02-24T14:19:28.213Z,11.30
2023-02-24T14:21:57.160Z,14.13
2023-02-24T14:24:26.671Z,8.13
2023-02-24T14:26:55.870Z,9.15
2023-02-24T14:29:27.980Z,11.90
2023-02-24T14:31:56.383Z,11.57
2023-02-24T14:34:25.556Z,9.85
2023-02-24T14:36:57.139Z,12.40
2023-02-24T14:39:31.894Z,9.63
2023-02-24T14:42:07.644Z,12.63
2023-02-24T14:44:34.777Z,15.40
2023-02-24T14:47:06.480Z,13.55
2023-02-24T14:49:34.831Z,8.90
2023-02-24T14:52:11.902Z,7.75
2023-02-24T14:54:45.816Z,7.03
2023-02-24T14:57:25.435Z,12.27
2023-02-24T14:59:57.559Z,12.32
2023-02-24T15:02:31.041Z,11.32
2023-02-24T15:04:58.601Z,8.57
2023-02-24T15:07:35.177Z,7.05
2023-02-24T15:10:02.733Z,6.57
2023-02-24T15:12:33.584Z,7.78
2023-02-24T15:15:28.385Z,6.00
2023-02-24T15:18:00.187Z,11.88
2023-02-24T15:20:34.404Z,11.02
2023-02-24T15:23:01.476Z,9.88
2023-02-24T15:25:42.283Z,5.53
2023-02-24T15:28:30.612Z,7.55
2023-02-24T15:31:10.937Z,7.60
2023-02-24T15:33:43.607Z,5.22
2023-02-24T15:36:19.623Z,6.70
2023-02-24T15:38:47.353Z,7.68
2023-02-24T15:41:14.583Z,6.43
2023-02-24T15:43:45.733Z,6.47
2023-02-24T15:46:15.893Z,10.20
2023-02-24T15:48:47.940Z,6.57
2023-02-24T15:51:41.618Z,5.15
2023-02-24T15:54:12.899Z,5.65
2023-02-24T15:56:40.285Z,9.65
2023-02-24T15:59:06.720Z,4.10
2023-02-24T16:01:33.733Z,3.40
2023-02-24T16:04:01.167Z,6.30
2023-02-24T16:06:28.851Z,4.32
2023-02-24T16:08:57.247Z,5.38
2023-02-24T16:11:38.729Z,5.40
2023-02-24T16:14:05.533Z,6.15
2023-02-24T16:16:33.349Z,5.00
2023-02-24T16:18:59.946Z,7.25
2023-02-24T16:21:26.624Z,5.30
2023-02-24T16:23:53.431Z,5.45
2023-02-24T16:26:23.506Z,9.02
2023-02-24T16:28:54.606Z,3.92
2023-02-24T16:31:22.474Z,6.90
2023-02-24T16:33:55.018Z,4.40
2023-02-24T16:36:24.463Z,4.80
2023-02-24T16:38:51.740Z,4.18
2023-02-24T16:41:18.403Z,4.45
2023-02-24T16:43:45.112Z,4.93
2023-02-24T16:46:18.033Z,5.70
2023-02-24T16:48:46.626Z,4.75
2023-02-24T16:51:15.074Z,4.55
2023-02-24T16:53:41.773Z,6.20
2023-02-24T16:56:09.048Z,6.65
2023-02-24T16:58:36.498Z,6.97
2023-02-24T17:01:05.457Z,5.05
2023-02-24T17:03:41.609Z,5.07
2023-02-24T17:06:08.398Z,3.47
2023-02-24T17:08:35.891Z,6.38
2023-02-24T17:11:03.659Z,6.85
2023-02-24T17:13:30.413Z,5.18
2023-02-24T17:15:57.544Z,4.57
2023-02-24T17:18:25.496Z,4.97
2023-02-24T17:20:52.880Z,5.78
2023-02-24T17:23:19.758Z,9.40
2023-02-24T17:25:50.548Z,11.35
2023-02-24T17:28:17.101Z,14.20
2023-02-24T17:30:43.675Z,5.80
2023-02-24T17:33:11.076Z,6.07
2023-02-24T17:35:37.573Z,4.93
2023-02-24T17:38:04.035Z,5.97
2023-02-24T17:40:30.563Z,5.72
2023-02-24T17:42:57.073Z,7.32
2023-02-24T17:45:27.512Z,4.53
2023-02-24T17:47:54.830Z,7.45
2023-02-24T17:50:21.846Z,5.85
2023-02-24T17:52:48.440Z,6.03
2023-02-24T17:55:15.088Z,5.15
2023-02-24T17:57:41.658Z,4.93
2023-02-24T18:00:09.402Z,4.50
2023-02-24T18:02:36.585Z,5.75
2023-02-24T18:05:03.310Z,6.70
2023-02-24T18:07:29.996Z,5.40
2023-02-24T18:09:56.870Z,4.20
2023-02-24T18:12:24.777Z,5.40
2023-02-24T18:15:07.951Z,5.45
2023-02-24T18:17:36.939Z,7.43
2023-02-24T18:20:04.341Z,5.07
2023-02-24T18:22:30.847Z,6.90
2023-02-24T18:24:57.598Z,4.90
2023-02-24T18:27:24.214Z,8.18
2023-02-24T18:29:51.434Z,9.20
2023-02-24T18:32:18.495Z,5.10
2023-02-24T18:34:45.049Z,11.70
2023-02-24T18:37:12.108Z,10.57
2023-02-24T18:39:38.779Z,6.25
2023-02-24T18:42:05.490Z,6.45
2023-02-24T18:44:31.946Z,10.27
2023-02-24T18:46:58.483Z,6.53
2023-02-24T18:49:25.129Z,6.10
2023-02-24T18:51:51.645Z,6.97
2023-02-24T18:54:18.249Z,8.15
2023-02-24T18:56:44.939Z,7.30
2023-02-24T18:59:11.510Z,7.57
2023-02-24T19:01:39.520Z,6.13
2023-02-24T19:04:08.092Z,8.07
2023-02-24T19:06:35.769Z,7.18
2023-02-24T19:09:09.726Z,11.32
2023-02-24T19:11:36.884Z,8.30
2023-02-24T19:14:04.300Z,11.07
2023-02-24T19:16:31.070Z,10.70
2023-02-24T19:18:58.724Z,9.80
2023-02-24T19:21:26.632Z,8.70
2023-02-24T19:23:53.073Z,9.00
2023-02-24T19:26:22.900Z,11.00
2023-02-24T19:28:50.448Z,14.30
2023-02-24T19:31:22.150Z,8.95
2023-02-24T19:33:53.165Z,10.55
2023-02-24T19:36:19.910Z,13.73
2023-02-24T19:38:46.533Z,13.75
2023-02-24T19:41:12.961Z,18.58
2023-02-24T19:43:42.064Z,13.57
2023-02-24T19:46:11.117Z,12.88
2023-02-24T19:48:38.481Z,12.60
2023-02-24T19:51:15.928Z,13.77
2023-02-24T19:53:42.623Z,11.95
2023-02-24T19:56:09.522Z,10.15
2023-02-24T19:58:36.548Z,13.30
2023-02-24T20:01:06.084Z,13.48
2023-02-24T20:03:32.541Z,10.80
2023-02-24T20:05:59.112Z,9.52
2023-02-24T20:08:25.595Z,13.20
2023-02-24T20:11:03.182Z,11.20
2023-02-24T20:13:30.067Z,13.23
2023-02-24T20:16:08.558Z,12.77
2023-02-24T20:18:35.478Z,11.82
2023-02-24T20:21:01.967Z,14.02
2023-02-24T20:23:29.034Z,9.45
2023-02-24T20:25:56.578Z,10.98
2023-02-24T20:28:23.179Z,12.02
2023-02-24T20:30:50.886Z,13.95
2023-02-24T20:33:18.372Z,13.77
2023-02-24T20:35:44.822Z,12.25
2023-02-24T20:38:15.101Z,11.55
2023-02-24T20:40:42.335Z,12.45
2023-02-24T20:43:09.934Z,11.48
2023-02-24T20:45:38.258Z,11.43
2023-02-24T20:48:04.935Z,10.65
2023-02-24T20:50:31.575Z,11.13
2023-02-24T20:52:58.056Z,13.00
2023-02-24T20:55:24.610Z,12.07
2023-02-24T20:57:51.262Z,10.60
2023-02-24T21:00:23.139Z,14.02
2023-02-24T21:02:49.748Z,15.00
2023-02-24T21:05:22.749Z,11.90
2023-02-24T21:07:50.278Z,11.13
2023-02-24T21:10:18.177Z,9.75
2023-02-24T21:12:46.003Z,9.77
2023-02-24T21:15:12.811Z,9.60
2023-02-24T21:17:39.728Z,12.00
2023-02-24T21:20:11.232Z,8.40
2023-02-24T21:22:40.520Z,11.20
2023-02-24T21:25:10.807Z,8.98
2023-02-24T21:27:38.436Z,9.40
2023-02-24T21:30:06.882Z,8.95
2023-02-24T21:32:33.904Z,7.88
2023-02-24T21:35:00.732Z,7.50
2023-02-24T21:37:27.527Z,10.43
2023-02-24T21:39:54.044Z,8.45
2023-02-24T21:42:22.390Z,8.60
2023-02-24T21:44:51.087Z,7.75
2023-02-24T21:47:18.532Z,7.68
2023-02-24T21:49:46.192Z,11.73
2023-02-24T21:52:13.103Z,9.48
2023-02-24T21:54:39.698Z,6.90
2023-02-24T21:57:07.230Z,12.38
2023-02-24T21:59:33.751Z,8.43
2023-02-24T22:02:00.300Z,7.55
2023-02-24T22:04:26.798Z,7.13
2023-02-24T22:06:53.291Z,10.40
2023-02-24T22:09:20.285Z,8.18
2023-02-24T22:11:48.113Z,6.30
2023-02-24T22:14:15.591Z,5.15
2023-02-24T22:16:43.362Z,6.53
2023-02-24T22:19:10.843Z,5.90
2023-02-24T22:21:39.724Z,9.05
2023-02-24T22:24:06.628Z,5.57
2023-02-24T22:26:33.740Z,6.18
2023-02-24T22:29:00.939Z,4.43
2023-02-24T22:31:29.834Z,9.35
2023-02-24T22:33:56.390Z,6.93
2023-02-24T22:36:25.854Z,4.75
2023-02-24T22:38:54.205Z,6.97
2023-02-24T22:41:23.571Z,9.35
2023-02-24T22:43:50.558Z,8.45
2023-02-24T22:46:21.081Z,9.77
2023-02-24T22:48:48.006Z,5.32
2023-02-24T22:51:14.810Z,8.63
2023-02-24T22:53:43.707Z,7.30
2023-02-24T22:56:12.534Z,9.35
2023-02-24T22:58:39.648Z,19.15
2023-02-24T23:01:11.258Z,11.85
2023-02-24T23:03:40.513Z,15.80
2023-02-24T23:06:13.567Z,13.75
2023-02-24T23:08:42.213Z,10.57
2023-02-24T23:11:12.289Z,14.63
2023-02-24T23:13:40.417Z,14.63
2023-02-24T23:16:10.208Z,16.02
2023-02-24T23:21:08.492Z,12.60
2023-02-24T23:23:36.653Z,16.60
2023-02-24T23:26:04.763Z,11.85
2023-02-24T23:28:31.381Z,11.00
2023-02-24T23:30:57.917Z,14.13
2023-02-24T23:33:24.427Z,16.90
2023-02-24T23:35:51.384Z,11.27
2023-02-24T23:38:17.994Z,12.68
2023-02-24T23:40:50.744Z,14.73
2023-02-24T23:43:18.442Z,12.70
2023-02-24T23:45:45.834Z,21.05
2023-02-24T23:48:14.749Z,14.57
2023-02-24T23:50:43.556Z,21.45
2023-02-24T23:53:10.409Z,14.00
2023-02-24T23:55:40.792Z,13.60
2023-02-24T23:58:07.494Z,18.20
